Time;durP1;ratioP1;P1;durP2;ratioP2;P2;SDS_P1;SDS_P2;PMS_P1;PMS_P2;Temp;Humidity;BMP_temperature;BMP_pressure;BME280_temperature;BME280_humidity;BME280_pressure;Samples;Min_cycle;Max_cycle;Signal;HPM_P1;HPM_P2
2021/09/04 00:00:33;;;;;;;21.25;15.02;;;410.40;2355.20;;;;;;6308894;22;20006;-64
2021/09/04 00:02:59;;;;;;;22.98;14.60;;;410.20;2355.20;;;;;;6308841;22;20014;-67
2021/09/04 00:05:25;;;;;;;20.15;14.60;;;410.10;2355.20;;;;;;6308402;22;19999;-64
2021/09/04 00:07:51;;;;;;;21.23;14.77;;;410.10;2355.20;;;;;;6309257;22;20057;-64
2021/09/04 00:10:17;;;;;;;23.85;14.52;;;410.10;2355.20;;;;;;6308898;22;19999;-64
2021/09/04 00:12:43;;;;;;;20.55;13.75;;;409.90;2355.20;;;;;;6281197;22;20014;-63
2021/09/04 00:15:09;;;;;;;19.80;13.27;;;410.00;2355.20;;;;;;6281121;22;20027;-63
2021/09/04 00:17:35;;;;;;;20.92;13.10;;;409.80;2355.20;;;;;;6308476;22;20007;-63
2021/09/04 00:20:00;;;;;;;20.65;12.90;;;409.90;2355.20;;;;;;6307683;22;20048;-63
2021/09/04 00:22:26;;;;;;;19.55;12.70;;;409.90;2355.20;;;;;;6308479;22;20012;-63
2021/09/04 00:24:52;;;;;;;20.13;13.02;;;409.90;2355.20;;;;;;6308770;22;20025;-63
2021/09/04 00:27:18;;;;;;;19.98;12.93;;;409.90;2355.20;;;;;;6308391;22;20321;-63
2021/09/04 00:29:44;;;;;;;22.52;12.85;;;409.90;2355.20;;;;;;6308652;22;20011;-63
2021/09/04 00:32:10;;;;;;;18.70;12.63;;;409.90;2355.20;;;;;;6307889;22;20303;-63
2021/09/04 00:34:36;;;;;;;20.90;14.00;;;409.90;2355.20;;;;;;6308108;22;20011;-64
2021/09/04 00:37:03;;;;;;;18.48;12.82;;;409.90;2355.20;;;;;;6307813;22;20010;-63
2021/09/04 00:39:29;;;;;;;21.00;13.18;;;409.90;2355.20;;;;;;6280626;22;20042;-63
2021/09/04 00:41:54;;;;;;;19.15;13.60;;;409.90;2355.20;;;;;;6308336;22;20007;-63
2021/09/04 00:44:21;;;;;;;22.25;13.73;;;409.80;2355.20;;;;;;6308243;22;20362;-63
2021/09/04 00:46:47;;;;;;;24.63;13.98;;;409.70;2355.20;;;;;;6308090;22;20074;-63
2021/09/04 00:49:14;;;;;;;18.48;12.50;;;409.60;2355.20;;;;;;6280164;22;20053;-63
2021/09/04 00:51:43;;;;;;;17.92;12.65;;;409.60;2355.20;;;;;;6308102;22;20413;-64
2021/09/04 00:54:09;;;;;;;19.70;13.18;;;409.60;2355.20;;;;;;6308143;22;20010;-63
2021/09/04 00:56:37;;;;;;;21.95;12.75;;;409.60;2355.20;;;;;;6280849;22;20000;-63
2021/09/04 00:59:07;;;;;;;19.08;12.45;;;409.70;2355.20;;;;;;6308006;22;19999;-63
2021/09/04 01:01:34;;;;;;;15.35;11.40;;;409.80;2355.20;;;;;;6308105;22;19999;-63
2021/09/04 01:03:59;;;;;;;16.08;11.43;;;409.80;2355.20;;;;;;6307700;22;20050;-63
2021/09/04 01:06:25;;;;;;;16.20;11.55;;;409.80;2355.20;;;;;;6308283;22;19998;-63
2021/09/04 01:08:51;;;;;;;15.55;10.95;;;409.80;2355.20;;;;;;6308001;22;20068;-63
2021/09/04 01:11:17;;;;;;;14.75;10.70;;;409.80;2355.20;;;;;;6308745;22;19996;-63
2021/09/04 01:13:43;;;;;;;16.13;10.82;;;409.80;2355.20;;;;;;6308002;22;20079;-63
2021/09/04 01:16:10;;;;;;;17.00;10.52;;;409.90;2355.20;;;;;;6307298;22;20022;-63
2021/09/04 01:18:36;;;;;;;18.27;11.88;;;409.90;2355.20;;;;;;6308343;22;19999;-63
2021/09/04 01:21:03;;;;;;;17.17;11.35;;;409.90;2355.20;;;;;;6308190;22;20074;-63
2021/09/04 01:23:29;;;;;;;16.60;10.52;;;409.90;2355.20;;;;;;6280786;22;20019;-63
2021/09/04 01:25:55;;;;;;;16.88;11.57;;;409.90;2355.20;;;;;;6308109;22;20057;-63
2021/09/04 01:28:22;;;;;;;16.90;11.50;;;409.90;2355.20;;;;;;6308076;22;20002;-63
2021/09/04 01:30:48;;;;;;;18.30;11.30;;;409.80;2355.20;;;;;;6308324;22;19999;-63
2021/09/04 01:33:15;;;;;;;15.60;11.15;;;409.70;2355.20;;;;;;6308131;22;20004;-64
2021/09/04 01:35:41;;;;;;;17.83;11.35;;;409.70;2355.20;;;;;;6308095;22;20008;-63
2021/09/04 01:38:07;;;;;;;15.02;10.82;;;409.60;2355.20;;;;;;6307727;22;20003;-63
2021/09/04 01:40:33;;;;;;;20.90;10.90;;;409.60;2355.20;;;;;;6308347;22;20005;-63
2021/09/04 01:42:58;;;;;;;17.30;10.40;;;384.90;2329.60;;;;;;6308155;22;20013;-63
2021/09/04 01:45:24;;;;;;;17.58;11.20;;;384.90;2329.60;;;;;;6308369;22;20062;-63
2021/09/04 01:47:50;;;;;;;17.02;10.63;;;384.80;2329.60;;;;;;6307767;22;20456;-63
2021/09/04 01:50:16;;;;;;;17.80;11.57;;;384.90;2329.60;;;;;;6307724;22;20034;-63
2021/09/04 01:52:44;;;;;;;16.40;10.50;;;384.90;2329.60;;;;;;6308185;22;20074;-63
2021/09/04 01:55:12;;;;;;;17.70;10.25;;;384.80;2329.60;;;;;;6307993;22;20066;-63
2021/09/04 01:57:38;;;;;;;14.13;10.55;;;384.80;2329.60;;;;;;6307447;22;20025;-63
2021/09/04 02:00:06;;;;;;;17.38;10.48;;;384.80;2329.60;;;;;;6307605;22;20302;-63
2021/09/04 02:02:32;;;;;;;17.60;11.13;;;384.80;2329.60;;;;;;6307802;22;20495;-63
2021/09/04 02:04:57;;;;;;;16.42;10.02;;;384.80;2329.60;;;;;;6307820;22;19995;-63
2021/09/04 02:07:24;;;;;;;14.57;9.65;;;384.80;2329.60;;;;;;6308388;22;20008;-63
2021/09/04 02:09:49;;;;;;;14.80;9.63;;;384.80;2329.60;;;;;;6309839;22;19999;-63
2021/09/04 02:12:15;;;;;;;14.95;9.90;;;384.70;2329.60;;;;;;6309931;22;20456;-63
2021/09/04 02:14:41;;;;;;;15.57;10.45;;;384.60;2329.60;;;;;;6310246;22;20005;-63
2021/09/04 02:17:06;;;;;;;15.77;10.25;;;384.50;2329.60;;;;;;6281952;22;20425;-63
2021/09/04 02:19:32;;;;;;;17.00;10.63;;;384.50;2329.60;;;;;;6280478;22;20006;-64
2021/09/04 02:21:58;;;;;;;18.33;11.20;;;384.50;2329.60;;;;;;6309681;22;20037;-63
2021/09/04 02:24:23;;;;;;;16.83;11.30;;;384.50;2329.60;;;;;;6309524;22;20337;-64
2021/09/04 02:26:49;;;;;;;17.30;11.40;;;384.50;2329.60;;;;;;6309963;22;20076;-63
2021/09/04 02:29:15;;;;;;;17.77;11.05;;;384.50;2329.60;;;;;;6309201;22;20425;-63
2021/09/04 02:31:41;;;;;;;15.70;10.68;;;384.50;2329.60;;;;;;6309419;22;20007;-63
2021/09/04 02:34:06;;;;;;;17.35;11.77;;;384.40;2329.60;;;;;;6309528;22;20011;-63
2021/09/04 02:36:32;;;;;;;16.65;10.85;;;384.40;2329.60;;;;;;6308848;22;20010;-63
2021/09/04 02:38:58;;;;;;;17.92;11.82;;;384.30;2329.60;;;;;;6309582;22;19999;-63
2021/09/04 02:41:23;;;;;;;16.73;11.50;;;384.30;2329.60;;;;;;6309662;22;20026;-63
2021/09/04 02:43:49;;;;;;;17.00;11.90;;;384.30;2329.60;;;;;;6309386;22;20367;-63
2021/09/04 02:46:15;;;;;;;15.73;11.48;;;384.30;2329.60;;;;;;6309617;22;20006;-63
2021/09/04 02:48:40;;;;;;;15.40;10.23;;;384.30;2329.60;;;;;;6309334;22;20325;-63
2021/09/04 02:51:06;;;;;;;17.10;10.07;;;384.30;2329.60;;;;;;6309494;22;20003;-63
2021/09/04 02:53:32;;;;;;;15.23;9.63;;;384.30;2329.60;;;;;;6309249;22;19999;-63
2021/09/04 02:55:58;;;;;;;15.20;10.20;;;384.30;2329.60;;;;;;6309236;22;20003;-63
2021/09/04 02:58:24;;;;;;;15.75;9.50;;;384.30;2329.60;;;;;;6309142;22;20417;-63
2021/09/04 03:00:50;;;;;;;14.63;9.35;;;384.30;2329.60;;;;;;6309665;22;20015;-63
2021/09/04 03:03:16;;;;;;;14.05;9.43;;;384.20;2329.60;;;;;;6309458;22;20011;-63
2021/09/04 03:05:41;;;;;;;15.20;9.30;;;384.20;2329.60;;;;;;6309456;22;20388;-63
2021/09/04 03:08:07;;;;;;;12.27;8.88;;;384.10;2329.60;;;;;;6308666;22;20058;-63
2021/09/04 03:10:33;;;;;;;13.70;9.38;;;384.00;2329.60;;;;;;6309113;22;20003;-63
2021/09/04 03:12:58;;;;;;;13.40;8.85;;;384.00;2329.60;;;;;;6309012;22;20000;-63
2021/09/04 03:15:24;;;;;;;13.18;9.35;;;359.30;2329.60;;;;;;6305088;22;19995;-63
2021/09/04 03:17:50;;;;;;;11.82;9.10;;;359.30;2329.60;;;;;;6306381;22;20321;-63
2021/09/04 03:20:15;;;;;;;17.42;9.45;;;359.30;2329.60;;;;;;6306456;22;20000;-63
2021/09/04 03:22:42;;;;;;;14.00;9.15;;;359.30;2329.60;;;;;;6305681;22;20007;-63
2021/09/04 03:25:08;;;;;;;14.07;9.52;;;359.30;2329.60;;;;;;6306696;22;19999;-63
2021/09/04 03:27:34;;;;;;;12.93;8.88;;;359.30;2329.60;;;;;;6306302;22;20003;-64
2021/09/04 03:30:01;;;;;;;13.73;9.27;;;359.30;2329.60;;;;;;6306464;22;20056;-64
2021/09/04 03:32:26;;;;;;;14.27;8.57;;;359.30;2329.60;;;;;;6305816;22;20320;-64
2021/09/04 03:34:55;;;;;;;11.40;8.07;;;359.30;2329.60;;;;;;6277560;22;20094;-64
2021/09/04 03:37:20;;;;;;;15.43;8.90;;;359.30;2329.60;;;;;;6304989;22;19999;-65
2021/09/04 03:39:46;;;;;;;18.13;8.32;;;359.20;2329.60;;;;;;6306102;22;20074;-64
2021/09/04 03:42:12;;;;;;;12.82;8.70;;;359.20;2329.60;;;;;;6279061;22;20383;-65
2021/09/04 03:44:38;;;;;;;14.23;9.13;;;359.10;2329.60;;;;;;6305358;22;20056;-64
2021/09/04 03:47:04;;;;;;;14.77;9.27;;;359.00;2329.60;;;;;;6307007;22;20003;-64
2021/09/04 03:49:30;;;;;;;17.00;9.57;;;359.00;2329.60;;;;;;6277921;22;20317;-64
2021/09/04 03:51:55;;;;;;;16.00;8.88;;;358.90;2329.60;;;;;;6306494;22;19999;-64
2021/09/04 03:54:21;;;;;;;13.98;8.65;;;358.90;2329.60;;;;;;6276122;22;20003;-64
2021/09/04 03:56:47;;;;;;;12.82;8.63;;;358.90;2329.60;;;;;;6306498;22;20003;-64
2021/09/04 03:59:13;;;;;;;12.10;8.38;;;358.90;2329.60;;;;;;6306800;22;20000;-63
2021/09/04 04:01:39;;;;;;;12.85;9.07;;;358.90;2329.60;;;;;;6306418;22;19999;-65
2021/09/04 04:04:04;;;;;;;14.10;9.20;;;358.90;2329.60;;;;;;6306139;22;20003;-64
2021/09/04 04:06:30;;;;;;;12.15;8.00;;;358.90;2329.60;;;;;;6306435;22;20002;-64
2021/09/04 04:08:56;;;;;;;13.43;8.40;;;358.90;2329.60;;;;;;6306377;22;20016;-62
2021/09/04 04:11:22;;;;;;;16.10;8.63;;;358.90;2329.60;;;;;;6306259;22;20004;-63
2021/09/04 04:13:48;;;;;;;14.20;8.35;;;358.90;2329.60;;;;;;6305952;22;19996;-63
2021/09/04 04:16:14;;;;;;;13.63;8.77;;;358.90;2329.60;;;;;;6307571;22;20325;-63
2021/09/04 04:18:40;;;;;;;13.65;7.97;;;358.90;2329.60;;;;;;6307269;22;19996;-64
2021/09/04 04:21:06;;;;;;;14.23;8.02;;;358.90;2329.60;;;;;;6307256;22;20003;-63
2021/09/04 04:23:32;;;;;;;17.83;9.15;;;358.80;2329.60;;;;;;6307380;22;20011;-63
2021/09/04 04:25:58;;;;;;;16.67;8.88;;;358.80;2329.60;;;;;;6306579;22;20452;-63
2021/09/04 04:28:23;;;;;;;16.23;8.88;;;358.90;2329.60;;;;;;6306505;22;20086;-63
2021/09/04 04:30:49;;;;;;;14.30;8.80;;;358.90;2329.60;;;;;;6306781;22;20031;-63
2021/09/04 04:33:15;;;;;;;15.70;8.70;;;358.90;2329.60;;;;;;6306759;22;19999;-64
2021/09/04 04:35:41;;;;;;;13.10;7.97;;;358.90;2329.60;;;;;;6306902;22;20003;-63
2021/09/04 04:38:07;;;;;;;15.13;9.23;;;358.90;2329.60;;;;;;6306824;22;20062;-62
2021/09/04 04:40:33;;;;;;;16.23;9.73;;;358.90;2329.60;;;;;;6306850;22;20073;-63
2021/09/04 04:42:59;;;;;;;18.52;10.10;;;358.90;2329.60;;;;;;6307097;22;20011;-64
2021/09/04 04:45:24;;;;;;;17.58;10.93;;;358.90;2329.60;;;;;;6307021;22;20440;-63
2021/09/04 04:47:50;;;;;;;16.55;11.25;;;358.90;2329.60;;;;;;6307291;22;20003;-63
2021/09/04 04:50:17;;;;;;;19.70;10.75;;;358.90;2329.60;;;;;;6307153;22;20062;-63
2021/09/04 04:52:43;;;;;;;19.00;10.88;;;359.00;2329.60;;;;;;6306678;22;20090;-63
2021/09/04 04:55:10;;;;;;;17.63;10.65;;;358.90;2329.60;;;;;;6307031;22;20002;-63
2021/09/04 04:57:35;;;;;;;17.00;11.05;;;359.00;2329.60;;;;;;6306762;22;20008;-62
2021/09/04 05:00:02;;;;;;;14.98;10.38;;;359.10;2329.60;;;;;;6307282;22;19999;-63
2021/09/04 05:02:28;;;;;;;17.05;10.43;;;359.10;2329.60;;;;;;6279316;22;20022;-63
2021/09/04 05:04:53;;;;;;;15.85;9.40;;;359.30;2329.60;;;;;;6307169;22;20007;-63
2021/09/04 05:07:19;;;;;;;14.32;9.43;;;359.20;2329.60;;;;;;6306977;22;20003;-63
2021/09/04 05:09:45;;;;;;;15.73;9.02;;;359.30;2329.60;;;;;;6304620;22;20082;-63
2021/09/04 05:12:10;;;;;;;16.02;11.68;;;384.00;2329.60;;;;;;6306739;22;20418;-63
2021/09/04 05:14:36;;;;;;;14.48;10.65;;;359.30;2329.60;;;;;;6306696;22;20037;-63
2021/09/04 05:17:02;;;;;;;14.25;9.70;;;384.00;2329.60;;;;;;6306834;22;20003;-63
2021/09/04 05:19:30;;;;;;;19.45;10.63;;;384.10;2329.60;;;;;;6306947;22;20302;-63
2021/09/04 05:21:56;;;;;;;21.20;11.10;;;384.20;2329.60;;;;;;6306587;22;20004;-63
2021/09/04 05:24:21;;;;;;;21.05;11.70;;;384.30;2329.60;;;;;;6306713;22;20004;-63
2021/09/04 05:26:47;;;;;;;17.73;11.07;;;384.40;2329.60;;;;;;6306913;22;20052;-64
2021/09/04 05:29:13;;;;;;;17.50;10.55;;;384.50;2329.60;;;;;;6306608;22;20484;-64
2021/09/04 05:31:38;;;;;;;16.48;9.82;;;384.60;2329.60;;;;;;6306404;22;20003;-64
2021/09/04 05:34:04;;;;;;;19.35;9.50;;;384.70;2329.60;;;;;;6305439;22;20019;-63
2021/09/04 05:36:30;;;;;;;15.90;10.15;;;384.80;2329.60;;;;;;6306728;22;20003;-64
2021/09/04 05:38:55;;;;;;;19.90;12.73;;;384.90;2329.60;;;;;;6306588;22;20082;-65
2021/09/04 05:41:21;;;;;;;22.40;13.65;;;409.60;2355.20;;;;;;6307354;22;20074;-64
2021/09/04 05:43:47;;;;;;;21.70;12.77;;;409.70;2355.20;;;;;;6308242;22;20034;-64
2021/09/04 05:46:12;;;;;;;19.45;11.90;;;409.80;2355.20;;;;;;6308614;22;20007;-64
2021/09/04 05:48:38;;;;;;;19.85;12.15;;;410.00;2355.20;;;;;;6308526;22;20006;-64
2021/09/04 05:51:04;;;;;;;19.05;11.75;;;410.10;2355.20;;;;;;6309027;22;20003;-65
2021/09/04 05:53:30;;;;;;;18.35;12.38;;;410.20;2355.20;;;;;;6308378;22;20446;-64
2021/09/04 05:55:55;;;;;;;19.58;13.32;;;410.40;2355.20;;;;;;6308812;22;20009;-64
2021/09/04 05:58:23;;;;;;;23.30;13.05;;;410.40;2355.20;;;;;;6281235;22;20019;-64
2021/09/04 06:00:50;;;;;;;19.42;11.55;;;435.20;2355.20;;;;;;6308469;22;20005;-64
2021/09/04 06:03:16;;;;;;;19.20;10.95;;;435.40;2355.20;;;;;;6308350;22;20535;-64
2021/09/04 06:05:41;;;;;;;21.50;10.75;;;435.50;2355.20;;;;;;6308593;22;20034;-64
2021/09/04 06:08:07;;;;;;;13.80;9.32;;;435.70;2355.20;;;;;;6307688;22;20000;-64
2021/09/04 06:10:33;;;;;;;12.45;8.52;;;435.80;2355.20;;;;;;6308297;22;20014;-64
2021/09/04 06:12:59;;;;;;;14.65;8.85;;;435.90;2355.20;;;;;;6308573;22;20011;-64
2021/09/04 06:15:24;;;;;;;11.35;8.40;;;436.10;2355.20;;;;;;6308239;22;20022;-64
2021/09/04 06:17:50;;;;;;;13.23;8.82;;;460.80;2380.80;;;;;;6306368;22;20011;-64
2021/09/04 06:20:17;;;;;;;10.95;8.55;;;460.90;2380.80;;;;;;6308292;22;19999;-64
2021/09/04 06:22:43;;;;;;;12.57;8.68;;;461.10;2380.80;;;;;;6308082;22;20011;-64
2021/09/04 06:25:09;;;;;;;13.75;8.73;;;461.10;2380.80;;;;;;6307799;22;20022;-65
2021/09/04 06:27:35;;;;;;;12.13;8.30;;;461.30;2380.80;;;;;;6308107;22;20477;-64
2021/09/04 06:30:02;;;;;;;11.10;7.70;;;461.40;2380.80;;;;;;6280737;22;20003;-64
2021/09/04 06:32:28;;;;;;;10.13;7.28;;;461.60;2380.80;;;;;;6307601;22;20086;-65
2021/09/04 06:34:54;;;;;;;10.07;7.03;;;486.40;2380.80;;;;;;6308128;22;20092;-64
2021/09/04 06:37:20;;;;;;;9.75;7.20;;;486.50;2380.80;;;;;;6305743;22;20302;-65
2021/09/04 06:39:45;;;;;;;12.75;7.70;;;486.70;2380.80;;;;;;6308548;22;20004;-65
2021/09/04 06:42:11;;;;;;;10.95;7.93;;;486.80;2380.80;;;;;;6309869;22;20015;-65
2021/09/04 06:44:37;;;;;;;9.68;6.88;;;486.90;2380.80;;;;;;6309639;22;19995;-66
2021/09/04 06:47:03;;;;;;;8.80;5.93;;;487.00;2380.80;;;;;;6309057;22;20004;-65
2021/09/04 06:49:29;;;;;;;8.43;5.78;;;487.20;2380.80;;;;;;6307033;22;20333;-64
2021/09/04 06:51:54;;;;;;;9.10;6.22;;;512.00;2380.80;;;;;;6308507;22;19995;-65
2021/09/04 06:54:24;;;;;;;7.90;5.07;;;512.20;2380.80;;;;;;6309628;22;20118;-65
2021/09/04 06:56:50;;;;;;;7.65;5.47;;;512.30;2380.80;;;;;;6309298;22;19999;-65
2021/09/04 06:59:16;;;;;;;6.82;5.10;;;512.60;2380.80;;;;;;6309257;22;20082;-66
2021/09/04 07:01:42;;;;;;;6.55;5.22;;;512.80;2380.80;;;;;;6309088;22;20031;-65
2021/09/04 07:04:07;;;;;;;8.88;5.13;;;537.60;2406.40;;;;;;6309569;22;20420;-65
2021/09/04 07:06:33;;;;;;;8.63;5.22;;;537.80;2380.80;;;;;;6309303;22;19998;-65
2021/09/04 07:08:59;;;;;;;9.05;4.85;;;537.90;2329.60;;;;;;6309063;22;19999;-65
2021/09/04 07:11:25;;;;;;;7.93;5.03;;;538.10;2278.40;;;;;;6309392;22;20472;-65
2021/09/04 07:13:53;;;;;;;11.48;4.50;;;538.30;2252.80;;;;;;6281572;22;20392;-66
2021/09/04 07:16:20;;;;;;;9.07;4.68;;;563.20;2201.60;;;;;;6309110;22;20066;-66
2021/09/04 07:18:46;;;;;;;6.72;4.35;;;563.50;2150.40;;;;;;6309059;22;20102;-65
2021/09/04 07:21:12;;;;;;;6.95;4.03;;;563.70;2073.60;;;;;;6309219;22;20317;-66
2021/09/04 07:23:38;;;;;;;5.88;3.97;;;563.80;2022.40;;;;;;6309019;22;20007;-66
2021/09/04 07:26:04;;;;;;;6.88;4.07;;;564.00;1920.00;;;;;;6308794;22;19995;-66
2021/09/04 07:28:29;;;;;;;6.13;4.00;;;564.00;1920.00;;;;;;6281623;22;20070;-66
2021/09/04 07:30:55;;;;;;;5.88;4.40;;;588.80;1894.40;;;;;;6308995;22;20030;-65
2021/09/04 07:33:21;;;;;;;7.07;4.05;;;588.90;1868.80;;;;;;6280950;22;20003;-65
2021/09/04 07:35:47;;;;;;;5.82;4.00;;;589.00;1817.60;;;;;;6309215;22;20003;-66
2021/09/04 07:38:12;;;;;;;7.47;4.07;;;589.20;1817.60;;;;;;6308412;22;20011;-66
2021/09/04 07:40:38;;;;;;;5.97;3.72;;;589.30;1843.20;;;;;;6309119;22;19995;-67
2021/09/04 07:43:07;;;;;;;5.95;3.60;;;589.40;1740.80;;;;;;6309126;22;20034;-62
2021/09/04 07:45:34;;;;;;;5.60;3.50;;;589.50;1689.60;;;;;;6308880;22;20004;-71
2021/09/04 07:48:00;;;;;;;6.00;3.55;;;589.60;1638.40;;;;;;6309224;22;20363;-74
2021/09/04 07:50:26;;;;;;;4.95;3.30;;;589.70;1638.40;;;;;;6309232;22;19999;-73
2021/09/04 07:52:52;;;;;;;7.78;3.17;;;614.50;1612.80;;;;;;6307585;22;20086;-74
2021/09/04 07:55:18;;;;;;;4.93;3.13;;;614.60;1536.00;;;;;;6281363;22;19999;-75
2021/09/04 07:57:44;;;;;;;4.70;3.08;;;614.70;1484.80;;;;;;6283259;22;20330;-74
2021/09/04 08:00:10;;;;;;;7.38;3.15;;;614.90;1484.80;;;;;;6307729;22;20006;-72
2021/09/04 08:02:36;;;;;;;7.30;3.05;;;615.10;1536.00;;;;;;6307483;22;20094;-72
2021/09/04 08:05:02;;;;;;;5.55;3.10;;;615.10;1484.80;;;;;;6306604;22;20038;-72
2021/09/04 08:07:28;;;;;;;5.72;3.30;;;615.30;1459.20;;;;;;6308819;22;19999;-72
2021/09/04 08:09:54;;;;;;;5.50;3.10;;;615.30;1433.60;;;;;;6308936;22;20006;-72
2021/09/04 08:12:20;;;;;;;4.65;3.20;;;640.00;1433.60;;;;;;6308867;22;20010;-71
2021/09/04 08:14:45;;;;;;;6.45;2.97;;;640.00;1382.40;;;;;;6308929;22;20022;-72
2021/09/04 08:17:11;;;;;;;5.15;3.17;;;640.10;1408.00;;;;;;6308035;22;20277;-64
2021/09/04 08:19:37;;;;;;;6.97;3.05;;;640.40;1356.80;;;;;;6308463;22;20076;-66
2021/09/04 08:22:03;;;;;;;3.80;2.80;;;640.40;1356.80;;;;;;6308269;22;20033;-66
2021/09/04 08:24:31;;;;;;;7.68;3.10;;;640.50;1356.80;;;;;;6307952;22;20338;-66
2021/09/04 08:26:57;;;;;;;4.47;2.90;;;640.50;1382.40;;;;;;6308711;22;20060;-66
2021/09/04 08:29:22;;;;;;;3.90;2.80;;;640.50;1331.20;;;;;;6308144;22;20003;-66
2021/09/04 08:31:48;;;;;;;4.93;2.78;;;640.60;1331.20;;;;;;6308209;22;20076;-66
2021/09/04 08:34:14;;;;;;;5.88;3.13;;;640.60;1331.20;;;;;;6308251;22;20070;-67
2021/09/04 08:36:40;;;;;;;5.80;4.35;;;640.70;1331.20;;;;;;6304745;22;20011;-66
2021/09/04 08:39:05;;;;;;;7.25;3.20;;;640.80;1331.20;;;;;;6306436;22;20078;-65
2021/09/04 08:41:32;;;;;;;4.28;2.67;;;640.80;1305.60;;;;;;6304552;22;20388;-63
2021/09/04 08:43:58;;;;;;;5.55;3.10;;;640.90;1305.60;;;;;;6305996;22;20007;-67
2021/09/04 08:46:34;;;;;;;5.80;3.17;;;665.80;1331.20;;;;;;6305033;22;20002;-68
2021/09/04 08:49:01;;;;;;;5.50;3.33;;;665.90;1331.20;;;;;;6305591;22;19999;-66
2021/09/04 08:51:27;;;;;;;7.43;3.30;;;666.10;1305.60;;;;;;6304934;22;20007;-68
2021/09/04 08:53:53;;;;;;;4.15;2.70;;;666.10;1331.20;;;;;;6303825;22;20003;-67
2021/09/04 08:56:19;;;;;;;4.10;2.67;;;666.20;1254.40;;;;;;6304253;22;20004;-67
2021/09/04 08:58:44;;;;;;;5.32;2.60;;;666.50;1228.80;;;;;;6305616;22;20061;-66
2021/09/04 09:01:25;;;;;;;6.30;3.03;;;691.20;1228.80;;;;;;6305008;22;20072;-66
2021/09/04 09:03:53;;;;;;;3.95;3.13;;;691.50;1228.80;;;;;;6304764;22;20015;-69
2021/09/04 09:06:28;;;;;;;4.70;2.80;;;691.70;1152.00;;;;;;6304529;22;20003;-68
2021/09/04 09:08:54;;;;;;;3.55;2.70;;;692.10;1152.00;;;;;;6304828;22;20317;-67
2021/09/04 09:11:21;;;;;;;4.20;2.58;;;717.30;1075.20;;;;;;6304969;22;19999;-66
2021/09/04 09:13:50;;;;;;;3.70;2.55;;;742.60;998.40;;;;;;6278178;22;20008;-65
2021/09/04 09:16:18;;;;;;;4.78;3.30;;;768.10;1024.00;;;;;;6306079;22;21733;-69
2021/09/04 09:18:56;;;;;;;6.55;3.60;;;793.60;1100.80;;;;;;6307349;22;19999;-68
2021/09/04 09:21:23;;;;;;;3.33;2.70;;;819.40;998.40;;;;;;6307092;22;20365;-65
2021/09/04 09:24:16;;;;;;;5.40;3.08;;;845.10;972.80;;;;;;6279849;22;20065;-66
2021/09/04 09:26:48;;;;;;;;;;;870.70;947.20;;;;;;6307827;22;20003;-66
2021/09/04 09:29:35;;;;;;;4.03;2.55;;;871.20;896.00;;;;;;6307963;22;20368;-66
2021/09/04 09:32:06;;;;;;;4.82;2.20;;;921.90;819.20;;;;;;6301957;22;20006;-67
2021/09/04 09:34:40;;;;;;;4.65;2.60;;;947.40;716.80;;;;;;6309593;22;20034;-67
2021/09/04 09:37:06;;;;;;;3.40;2.90;;;973.60;691.20;;;;;;6309603;22;20493;-68
2021/09/04 09:39:34;;;;;;;4.93;2.63;;;998.70;691.20;;;;;;6308584;22;20437;-66
2021/09/04 09:42:03;;;;;;;4.32;2.60;;;1024.20;640.00;;;;;;6309519;22;20004;-65
2021/09/04 09:44:30;;;;;;;5.30;2.67;;;1050.10;640.00;;;;;;6310315;22;20367;-67
2021/09/04 09:46:58;;;;;;;3.53;2.60;;;1050.20;640.00;;;;;;6282055;22;20397;-66
2021/09/04 09:49:31;;;;;;;3.97;2.88;;;1050.50;614.40;;;;;;6310141;22;20070;-66
2021/09/04 09:52:05;;;;;;;3.40;2.53;;;1100.90;588.80;;;;;;6309878;22;20429;-66
2021/09/04 09:54:32;;;;;;;4.88;3.00;;;1126.70;588.80;;;;;;6309512;22;20045;-65
2021/09/04 09:57:19;;;;;;;3.75;2.78;;;1152.90;512.00;;;;;;6309742;22;20002;-65
2021/09/04 09:59:45;;;;;;;3.97;3.33;;;1178.10;435.20;;;;;;6282165;22;19995;-67
2021/09/04 10:02:15;;;;;;;4.40;3.03;;;1178.50;435.20;;;;;;6309735;22;20033;-66
2021/09/04 10:04:45;;;;;;;3.75;3.35;;;1178.50;435.20;;;;;;6309755;22;20072;-65
2021/09/04 10:07:11;;;;;;;6.18;2.80;;;1204.00;435.20;;;;;;6309339;22;20007;-66
2021/09/04 10:09:39;;;;;;;3.50;2.90;;;1203.80;435.20;;;;;;6309482;22;20339;-67
2021/09/04 10:12:05;;;;;;;3.17;2.67;;;1229.10;460.80;;;;;;6309304;22;19999;-66
2021/09/04 10:14:31;;;;;;;4.30;2.60;;;1229.70;460.80;;;;;;6282417;22;20011;-67
2021/09/04 10:17:02;;;;;;;2.40;2.20;;;1254.90;486.40;;;;;;6309381;22;19996;-66
2021/09/04 10:19:31;;;;;;;2.85;2.40;;;1255.30;486.40;;;;;;6309635;22;20006;-67
2021/09/04 10:22:02;;;;;;;3.97;2.70;;;1254.50;486.40;;;;;;6309556;22;20010;-66
2021/09/04 10:24:43;;;;;;;3.65;2.60;;;1280.60;486.40;;;;;;6309293;22;20010;-66
2021/09/04 10:27:10;;;;;;;3.40;2.50;;;1254.90;486.40;;;;;;6308942;22;20023;-66
2021/09/04 10:29:45;;;;;;;3.15;2.70;;;1280.30;486.40;;;;;;6309101;22;19999;-67
2021/09/04 10:32:17;;;;;;;4.35;3.00;;;1306.50;486.40;;;;;;6281955;22;20433;-67
2021/09/04 10:34:47;;;;;;;4.40;2.67;;;1331.50;512.00;;;;;;6309022;22;20026;-68
2021/09/04 10:37:13;;;;;;;3.38;2.70;;;1305.60;486.40;;;;;;6309720;22;20078;-67
2021/09/04 10:39:46;;;;;;;3.20;2.63;;;1332.10;512.00;;;;;;6281406;22;20049;-67
2021/09/04 10:42:15;;;;;;;3.33;2.75;;;1306.40;486.40;;;;;;6309203;22;20413;-68
2021/09/04 10:44:42;;;;;;;3.67;2.97;;;1332.00;512.00;;;;;;6309483;22;19999;-70
2021/09/04 10:47:10;;;;;;;3.05;2.75;;;1357.70;537.60;;;;;;6309389;22;20022;-68
2021/09/04 10:49:44;;;;;;;3.10;2.80;;;1331.30;512.00;;;;;;6309462;22;20031;-69
2021/09/04 10:52:10;;;;;;;3.85;2.60;;;1357.00;537.60;;;;;;6282047;22;20086;-68
2021/09/04 10:54:58;;;;;;;2.88;2.53;;;1357.30;537.60;;;;;;6309394;22;20098;-70
2021/09/04 10:57:24;;;;;;;3.30;3.00;;;1332.10;512.00;;;;;;6309493;22;20313;-68
2021/09/04 11:00:16;;;;;;;3.05;2.75;;;1332.10;512.00;;;;;;6309269;22;19999;-69
2021/09/04 11:02:51;;;;;;;3.00;2.70;;;1306.50;486.40;;;;;;6309103;22;20005;-68
2021/09/04 11:05:26;;;;;;;3.30;3.00;;;1332.10;512.00;;;;;;6309074;22;20003;-67
2021/09/04 11:08:02;;;;;;;3.38;2.83;;;1357.30;537.60;;;;;;6281781;22;20003;-66
2021/09/04 11:10:28;;;;;;;4.22;3.03;;;1356.80;537.60;;;;;;6309269;22;20006;-68
2021/09/04 11:13:32;;;;;;;4.28;3.13;;;1382.70;563.20;;;;;;6308694;22;20019;-70
2021/09/04 11:16:26;;;;;;;3.47;3.10;;;1408.10;563.20;;;;;;6307609;22;20417;-68
2021/09/04 11:18:53;;;;;;;3.40;3.08;;;1408.30;563.20;;;;;;6307875;22;19996;-70
2021/09/04 11:21:19;;;;;;;3.58;3.28;;;1408.80;563.20;;;;;;6307846;22;20321;-68
2021/09/04 11:23:44;;;;;;;3.75;3.45;;;1408.60;563.20;;;;;;6307148;22;19995;-70
2021/09/04 11:26:10;;;;;;;5.03;3.10;;;1408.40;563.20;;;;;;6280228;22;20006;-70
2021/09/04 11:28:37;;;;;;;4.07;3.15;;;1357.00;537.60;;;;;;6308115;22;20007;-69
2021/09/04 11:31:04;;;;;;;4.57;3.08;;;1305.90;486.40;;;;;;6307011;22;20007;-66
2021/09/04 11:33:30;;;;;;;5.13;4.28;;;1331.80;512.00;;;;;;6307481;22;20040;-68
2021/09/04 11:35:56;;;;;;;3.50;3.20;;;1382.50;563.20;;;;;;6308894;22;20002;-68
2021/09/04 11:38:23;;;;;;;3.60;3.30;;;1382.70;563.20;;;;;;6308902;22;20012;-70
2021/09/04 11:40:51;;;;;;;3.38;3.08;;;1382.80;563.20;;;;;;6308547;22;20353;-69
2021/09/04 11:43:18;;;;;;;3.75;2.85;;;1357.70;537.60;;;;;;6308965;22;20074;-68
2021/09/04 11:45:44;;;;;;;3.50;2.80;;;1382.50;563.20;;;;;;6308984;22;20003;-68
2021/09/04 11:48:14;;;;;;;3.38;3.08;;;1382.50;563.20;;;;;;6309161;22;20303;-68
2021/09/04 11:50:40;;;;;;;3.30;2.83;;;1332.10;512.00;;;;;;6308611;22;19995;-67
2021/09/04 11:53:12;;;;;;;3.80;2.90;;;1357.00;537.60;;;;;;6308836;22;20015;-68
2021/09/04 11:55:38;;;;;;;3.78;2.50;;;1332.10;512.00;;;;;;6308073;22;20367;-67
2021/09/04 11:58:10;;;;;;;6.25;2.90;;;1356.80;537.60;;;;;;6308765;22;19999;-69
2021/09/04 12:00:37;;;;;;;4.80;2.90;;;1356.80;537.60;;;;;;6281269;22;20010;-69
2021/09/04 12:03:11;;;;;;;3.17;2.80;;;1356.80;537.60;;;;;;6308394;22;20436;-70
2021/09/04 12:05:40;;;;;;;6.55;5.25;;;1306.10;486.40;;;;;;6308341;22;20012;-67
2021/09/04 12:08:12;;;;;;;4.60;4.20;;;1331.60;512.00;;;;;;6308573;22;20421;-68
2021/09/04 12:10:43;;;;;;;3.95;2.92;;;1357.60;537.60;;;;;;6308625;22;19995;-69